createdAt,value
2023-02-03T00:03:53.996Z,70.95
2023-02-03T00:08:59.493Z,70.49
2023-02-03T00:14:02.144Z,70.48
2023-02-03T00:19:05.018Z,70.41
2023-02-03T00:24:07.758Z,71.34
2023-02-03T00:29:10.832Z,70.71
2023-02-03T00:34:13.676Z,71.46
2023-02-03T00:39:16.673Z,71.54
2023-02-03T00:44:19.387Z,71.63
2023-02-03T00:49:21.985Z,71.87
2023-02-03T00:54:25.301Z,72.18
2023-02-03T00:59:27.929Z,72.04
2023-02-03T01:04:30.509Z,72.48
2023-02-03T01:09:35.174Z,72.17
2023-02-03T01:14:37.801Z,72.82
2023-02-03T01:19:40.516Z,73.28
2023-02-03T01:24:43.195Z,73.26
2023-02-03T01:29:47.687Z,73.52
2023-02-03T01:34:50.697Z,73.48
2023-02-03T01:39:53.280Z,74.14
2023-02-03T01:44:55.985Z,73.88
2023-02-03T01:55:14.708Z,74.06
2023-02-03T02:00:18.091Z,73.65
2023-02-03T02:10:34.034Z,73.83
2023-02-03T02:47:32.070Z,74.02
2023-02-03T02:52:40.073Z,73.63
2023-02-03T02:57:46.215Z,74.03
2023-02-03T03:02:48.953Z,73.58
2023-02-03T03:07:58.124Z,72.96
2023-02-03T03:13:07.242Z,73.64
2023-02-03T03:18:18.140Z,73.54
2023-02-03T03:28:48.846Z,73.60
2023-02-03T03:33:51.865Z,73.11
2023-02-03T03:39:17.451Z,73.63
2023-02-03T03:44:25.855Z,72.73
2023-02-03T03:49:31.113Z,72.59
2023-02-03T03:54:37.567Z,73.46
2023-02-03T03:59:43.964Z,73.28
2023-02-03T04:04:48.489Z,72.35
2023-02-03T04:09:51.069Z,73.16
2023-02-03T04:14:53.610Z,72.77
2023-02-03T04:19:56.244Z,72.79
2023-02-03T04:24:59.131Z,73.11
2023-02-03T04:30:02.205Z,73.01
2023-02-03T04:35:07.122Z,72.36
2023-02-03T04:40:10.467Z,73.08
2023-02-03T04:45:13.261Z,73.69
2023-02-03T04:50:16.195Z,73.78
2023-02-03T04:55:18.905Z,73.59
2023-02-03T05:00:21.600Z,72.67
2023-02-03T05:05:24.233Z,73.29
2023-02-03T05:10:27.097Z,73.94
2023-02-03T05:15:29.777Z,73.74
2023-02-03T05:20:32.821Z,72.63
2023-02-03T05:25:38.593Z,72.07
2023-02-03T05:31:03.038Z,71.86
2023-02-03T05:36:06.048Z,72.43
2023-02-03T05:41:30.655Z,73.03
2023-02-03T05:46:33.257Z,72.97
2023-02-03T05:51:36.242Z,73.03
2023-02-03T05:56:39.783Z,72.44
2023-02-03T06:01:42.367Z,73.02
2023-02-03T06:06:45.187Z,72.94
2023-02-03T06:11:47.800Z,73.29
2023-02-03T06:16:50.897Z,72.43
2023-02-03T06:21:53.699Z,73.28
2023-02-03T06:26:56.453Z,73.94
2023-02-03T06:31:59.331Z,73.96
2023-02-03T06:37:02.219Z,73.57
2023-02-03T06:42:04.967Z,72.09
2023-02-03T06:47:07.649Z,73.73
2023-02-03T06:52:10.348Z,73.95
2023-02-03T06:57:13.151Z,73.28
2023-02-03T07:02:16.633Z,74.06
2023-02-03T07:07:19.391Z,73.81
2023-02-03T07:12:22.017Z,72.40
2023-02-03T07:17:24.714Z,72.28
2023-02-03T07:22:27.507Z,72.00
2023-02-03T07:27:30.088Z,71.79
2023-02-03T07:32:33.859Z,71.12
2023-02-03T07:37:36.627Z,71.10
2023-02-03T07:42:43.220Z,69.54
2023-02-03T07:47:54.036Z,69.98
2023-02-03T07:52:58.064Z,68.96
2023-02-03T07:58:06.291Z,68.50
2023-02-03T08:03:13.615Z,67.80
2023-02-03T08:08:16.804Z,67.58
2023-02-03T08:13:19.472Z,67.51
2023-02-03T08:18:22.644Z,67.71
2023-02-03T08:23:25.232Z,67.11
2023-02-03T08:28:27.855Z,67.53
2023-02-03T08:33:33.369Z,67.70
2023-02-03T08:39:26.973Z,66.44
2023-02-03T08:44:32.936Z,66.11
2023-02-03T08:49:36.028Z,65.42
2023-02-03T08:54:39.249Z,66.13
2023-02-03T08:59:45.187Z,65.82
2023-02-03T09:04:49.326Z,66.61
2023-02-03T09:09:52.344Z,67.42
2023-02-03T09:14:55.060Z,67.02
2023-02-03T09:19:57.753Z,66.31
2023-02-03T09:25:01.604Z,66.12
2023-02-03T09:30:05.791Z,65.89
2023-02-03T09:35:21.356Z,65.17
2023-02-03T09:40:30.362Z,63.65
2023-02-03T09:45:33.319Z,64.80
2023-02-03T09:50:39.758Z,64.35
2023-02-03T09:55:44.736Z,63.82
2023-02-03T10:00:52.010Z,62.56
2023-02-03T10:06:23.679Z,62.80
2023-02-03T10:11:56.813Z,62.20
2023-02-03T10:24:40.895Z,59.23
2023-02-03T10:29:44.133Z,59.21
2023-02-03T10:34:48.436Z,59.26
2023-02-03T10:39:54.316Z,58.76
2023-02-03T10:45:02.091Z,58.44
2023-02-03T10:50:16.806Z,58.26
2023-02-03T11:00:37.424Z,58.85
2023-02-03T11:05:45.614Z,58.89
2023-02-03T11:10:53.589Z,59.00
2023-02-03T11:26:27.694Z,59.13
2023-02-03T11:31:33.356Z,59.60
2023-02-03T11:36:36.392Z,58.48
2023-02-03T11:41:41.049Z,58.88
2023-02-03T11:46:47.196Z,59.39
2023-02-03T11:52:04.755Z,59.71
2023-02-03T12:13:49.305Z,60.69
2023-02-03T12:24:44.505Z,59.16
2023-02-03T12:29:55.559Z,58.64
2023-02-03T12:35:22.062Z,59.16
2023-02-03T12:45:54.922Z,60.49
2023-02-03T12:51:05.395Z,59.79
2023-02-03T12:56:12.161Z,60.60
2023-02-03T13:01:37.835Z,60.38
2023-02-03T13:17:25.926Z,60.59
2023-02-03T13:22:30.006Z,59.74
2023-02-03T13:43:41.815Z,60.36
2023-02-03T13:48:46.614Z,60.08
2023-02-03T13:53:51.119Z,60.88
2023-02-03T14:09:38.480Z,62.51
2023-02-03T14:19:55.402Z,62.42
2023-02-03T14:25:04.826Z,61.82
2023-02-03T14:35:32.672Z,62.61
2023-02-03T14:46:18.074Z,63.10
2023-02-03T15:06:58.938Z,63.29
2023-02-03T15:12:04.111Z,62.84
2023-02-03T15:17:23.496Z,62.51
2023-02-03T15:22:30.748Z,62.50
2023-02-03T15:27:33.864Z,62.08
2023-02-03T15:32:41.470Z,62.94
2023-02-03T15:37:51.561Z,63.03
2023-02-03T15:43:04.619Z,62.65
2023-02-03T15:58:44.856Z,62.73
2023-02-03T16:03:53.853Z,62.48
2023-02-03T16:08:58.225Z,62.23
2023-02-03T16:14:06.908Z,62.22
2023-02-03T16:19:16.569Z,62.34
2023-02-03T16:24:41.259Z,62.67
2023-02-03T16:30:04.026Z,62.64
2023-02-03T16:35:30.655Z,63.11
2023-02-03T16:40:53.317Z,62.98
2023-02-03T16:46:17.188Z,63.20
2023-02-03T16:51:21.603Z,63.06
2023-02-03T16:56:24.245Z,63.13
2023-02-03T17:01:26.883Z,63.83
2023-02-03T17:06:29.575Z,63.33
2023-02-03T17:11:34.344Z,63.42
2023-02-03T17:16:37.152Z,63.53
2023-02-03T17:21:40.985Z,63.75
2023-02-03T17:26:43.936Z,63.65
2023-02-03T17:31:46.655Z,64.01
2023-02-03T17:36:49.284Z,64.07
2023-02-03T17:57:45.172Z,63.01
2023-02-03T18:02:51.299Z,63.29
2023-02-03T18:07:54.016Z,62.28
2023-02-03T18:12:56.582Z,62.83
2023-02-03T18:17:59.109Z,62.58
2023-02-03T18:23:01.724Z,62.47
2023-02-03T18:28:05.025Z,62.22
2023-02-03T18:33:10.565Z,61.73
2023-02-03T18:38:13.156Z,62.57
2023-02-03T18:43:15.873Z,62.08
2023-02-03T18:48:18.463Z,62.52
2023-02-03T18:53:21.068Z,62.42
2023-02-03T18:58:23.607Z,61.81
2023-02-03T19:03:26.959Z,62.04
2023-02-03T19:08:29.411Z,62.51
2023-02-03T19:13:32.336Z,62.22
2023-02-03T19:18:36.253Z,62.31
2023-02-03T19:23:41.186Z,62.11
2023-02-03T19:28:45.065Z,61.55
2023-02-03T19:33:47.760Z,61.52
2023-02-03T19:38:50.354Z,61.33
2023-02-03T19:43:53.057Z,61.89
2023-02-03T19:48:55.683Z,61.66
2023-02-03T19:53:58.998Z,62.06
2023-02-03T19:59:05.952Z,61.48
2023-02-03T20:04:08.613Z,61.95
2023-02-03T20:09:13.031Z,61.48
2023-02-03T20:14:16.772Z,61.29
2023-02-03T20:19:20.118Z,61.23
2023-02-03T20:24:22.883Z,61.89
2023-02-03T20:29:25.659Z,61.49
2023-02-03T20:34:28.590Z,61.85
2023-02-03T20:39:31.690Z,60.83
2023-02-03T20:44:34.444Z,61.34
2023-02-03T20:49:39.293Z,61.29
2023-02-03T20:54:41.904Z,61.07
2023-02-03T20:59:45.366Z,61.58
2023-02-03T21:05:03.286Z,61.02
2023-02-03T21:10:20.168Z,60.70
2023-02-03T21:15:28.186Z,60.84
2023-02-03T21:20:32.744Z,60.78
2023-02-03T21:25:35.578Z,60.93
2023-02-03T21:30:38.566Z,61.33
2023-02-03T21:35:41.154Z,60.94
2023-02-03T21:40:43.732Z,60.77
2023-02-03T21:45:46.404Z,60.73
2023-02-03T21:50:48.952Z,60.69
2023-02-03T21:55:51.887Z,60.29
2023-02-03T22:00:56.502Z,60.88
2023-02-03T22:06:20.503Z,61.00
2023-02-03T22:11:26.463Z,60.87
2023-02-03T22:16:29.379Z,60.75
2023-02-03T22:21:32.233Z,61.10
2023-02-03T22:26:34.839Z,61.04
2023-02-03T22:31:37.538Z,60.83
2023-02-03T22:36:40.486Z,60.16
2023-02-03T22:41:42.981Z,60.88
2023-02-03T22:46:45.445Z,60.90
2023-02-03T22:51:48.009Z,60.50
2023-02-03T22:56:50.559Z,61.14
2023-02-03T23:01:53.822Z,60.72
2023-02-03T23:06:56.345Z,60.96
2023-02-03T23:11:58.940Z,61.15
2023-02-03T23:17:02.060Z,61.07
2023-02-03T23:22:04.716Z,61.65
2023-02-03T23:27:08.789Z,61.59
2023-02-03T23:32:11.461Z,61.58
2023-02-03T23:37:14.041Z,61.34
2023-02-03T23:42:16.606Z,62.45
2023-02-03T23:47:19.320Z,61.57
2023-02-03T23:52:21.878Z,61.29
2023-02-03T23:57:24.432Z,61.25
